createdAt,value
2019-04-03T00:00:39.718Z,6.05
2019-04-03T00:05:45.074Z,6.55
2019-04-03T00:10:50.421Z,7.25
2019-04-03T00:15:55.947Z,7.17
2019-04-03T00:21:01.201Z,7.00
2019-04-03T00:26:06.614Z,7.62
2019-04-03T00:31:12.186Z,8.23
2019-04-03T00:36:17.467Z,8.83
2019-04-03T00:41:24.768Z,8.97
2019-04-03T00:46:30.045Z,9.85
2019-04-03T00:51:35.408Z,9.85
2019-04-03T00:56:40.790Z,9.35
2019-04-03T01:01:46.392Z,8.45
2019-04-03T01:06:51.632Z,8.68
2019-04-03T01:11:56.897Z,9.53
2019-04-03T01:17:04.401Z,9.27
2019-04-03T01:22:09.394Z,8.87
2019-04-03T01:27:14.699Z,9.00
2019-04-03T01:32:19.477Z,8.43
2019-04-03T01:37:24.905Z,9.13
2019-04-03T01:42:30.261Z,9.10
2019-04-03T01:47:35.572Z,8.33
2019-04-03T01:52:40.878Z,9.63
2019-04-03T01:57:46.203Z,9.23
2019-04-03T02:02:51.659Z,10.28
2019-04-03T02:07:56.961Z,10.40
2019-04-03T02:13:02.232Z,10.78
2019-04-03T02:18:07.596Z,10.60
2019-04-03T02:23:13.970Z,11.50
2019-04-03T02:28:19.369Z,11.20
2019-04-03T02:33:28.354Z,10.95
2019-04-03T02:38:32.115Z,11.38
2019-04-03T02:43:37.845Z,11.10
2019-04-03T02:48:43.444Z,11.08
2019-04-03T02:53:48.662Z,11.50
2019-04-03T02:58:55.022Z,10.90
2019-04-03T03:04:01.135Z,10.90
2019-04-03T03:09:07.057Z,11.00
2019-04-03T03:14:13.182Z,11.30
2019-04-03T03:19:19.135Z,10.82
2019-04-03T03:24:28.501Z,11.08
2019-04-03T03:29:32.394Z,11.25
2019-04-03T03:34:54.943Z,10.60
2019-04-03T03:39:45.255Z,10.58
2019-04-03T03:44:50.958Z,9.58
2019-04-03T03:49:56.234Z,9.73
2019-04-03T03:55:01.979Z,8.38
2019-04-03T04:00:08.254Z,8.28
2019-04-03T04:05:13.725Z,7.70
2019-04-03T04:10:18.940Z,8.13
2019-04-03T04:15:28.825Z,7.97
2019-04-03T04:20:32.327Z,7.72
2019-04-03T04:25:38.431Z,7.70
2019-04-03T04:30:46.685Z,7.33
2019-04-03T04:35:52.967Z,7.10
2019-04-03T04:41:01.356Z,7.72
2019-04-03T04:46:05.418Z,7.08
2019-04-03T04:51:11.067Z,7.30
2019-04-03T04:56:16.460Z,7.87
2019-04-03T05:01:21.694Z,7.53
2019-04-03T05:06:28.582Z,7.17
2019-04-03T05:11:34.014Z,7.57
2019-04-03T05:16:39.221Z,8.13
2019-04-03T05:21:44.555Z,7.92
2019-04-03T05:26:49.802Z,7.90
2019-04-03T05:31:55.698Z,7.10
2019-04-03T05:37:02.072Z,6.30
2019-04-03T05:42:07.306Z,6.07
2019-04-03T05:47:12.707Z,7.22
2019-04-03T05:52:17.891Z,7.07
2019-04-03T05:57:23.916Z,5.00
2019-04-03T06:02:29.546Z,6.85
2019-04-03T06:07:35.704Z,5.60
2019-04-03T06:12:44.620Z,5.40
2019-04-03T06:17:50.244Z,6.37
2019-04-03T06:22:55.489Z,5.15
2019-04-03T06:28:00.736Z,5.12
2019-04-03T06:33:06.124Z,5.40
2019-04-03T06:38:11.767Z,7.35
2019-04-03T06:43:17.906Z,6.05
2019-04-03T06:48:23.236Z,5.75
2019-04-03T06:53:29.107Z,11.40
2019-04-03T06:58:38.941Z,9.13
2019-04-03T07:03:41.696Z,11.65
2019-04-03T07:08:47.148Z,14.17
2019-04-03T07:13:53.957Z,12.20
2019-04-03T07:18:59.758Z,12.68
2019-04-03T07:24:05.108Z,9.70
2019-04-03T07:29:12.163Z,8.07
2019-04-03T07:34:17.889Z,8.97
2019-04-03T07:39:23.242Z,7.60
2019-04-03T07:44:29.907Z,10.90
2019-04-03T07:49:35.768Z,10.68
2019-04-03T07:54:41.488Z,3.90
2019-04-03T07:59:47.278Z,3.10
2019-04-03T08:04:54.171Z,3.35
2019-04-03T08:09:59.717Z,2.80
2019-04-03T08:15:06.103Z,2.50
2019-04-03T08:20:11.500Z,2.77
2019-04-03T08:25:16.990Z,1.60
2019-04-03T08:30:22.335Z,1.40
2019-04-03T08:35:27.732Z,3.20
2019-04-03T08:40:33.429Z,3.50
2019-04-03T08:45:39.251Z,5.80
2019-04-03T08:50:44.896Z,4.10
2019-04-03T08:55:50.145Z,1.80
2019-04-03T09:00:56.130Z,1.60
2019-04-03T09:06:02.139Z,2.00
2019-04-03T09:11:08.781Z,3.85
2019-04-03T09:16:14.247Z,4.20
2019-04-03T09:21:19.463Z,3.50
2019-04-03T09:26:24.748Z,0.98
2019-04-03T09:31:30.080Z,0.85
2019-04-03T09:36:35.578Z,1.35
2019-04-03T09:41:40.989Z,0.90
2019-04-03T09:46:46.280Z,0.60
2019-04-03T09:51:53.020Z,0.80
2019-04-03T09:57:04.441Z,1.22
2019-04-03T10:02:05.586Z,1.20
2019-04-03T10:07:10.802Z,1.12
2019-04-03T10:12:17.039Z,1.80
2019-04-03T10:17:22.427Z,1.40
2019-04-03T10:22:28.311Z,1.12
2019-04-03T10:27:33.630Z,0.80
2019-04-03T10:32:39.143Z,0.80
2019-04-03T10:37:46.375Z,2.30
2019-04-03T10:42:51.869Z,1.20
2019-04-03T10:51:03.951Z,0.78
2019-04-03T10:56:10.033Z,1.55
2019-04-03T11:01:15.659Z,1.30
2019-04-03T11:06:21.380Z,1.90
2019-04-03T11:11:29.119Z,3.02
2019-04-03T11:16:34.353Z,2.12
2019-04-03T11:21:39.863Z,2.15
2019-04-03T11:26:45.662Z,1.57
2019-04-03T11:31:52.256Z,2.95
2019-04-03T11:36:59.686Z,3.65
2019-04-03T11:42:04.546Z,2.30
2019-04-03T11:47:10.886Z,2.12
2019-04-03T11:52:17.732Z,2.27
2019-04-03T11:57:44.111Z,1.52
2019-04-03T12:02:50.076Z,1.45
2019-04-03T12:07:56.648Z,2.72
2019-04-03T12:13:04.306Z,2.77
2019-04-03T12:18:10.085Z,3.20
2019-04-03T12:23:15.399Z,3.23
2019-04-03T12:28:20.892Z,1.90
2019-04-03T12:33:26.566Z,1.50
2019-04-03T12:38:31.876Z,1.40
2019-04-03T12:43:37.476Z,1.27
2019-04-03T12:48:43.327Z,0.87
2019-04-03T12:53:49.175Z,2.02
2019-04-03T12:58:54.645Z,1.60
2019-04-03T13:04:01.496Z,1.40
2019-04-03T13:09:10.989Z,1.13
2019-04-03T13:14:23.836Z,1.80
2019-04-03T13:19:24.464Z,2.05
2019-04-03T13:24:33.564Z,1.20
2019-04-03T13:29:40.844Z,1.70
2019-04-03T13:34:47.597Z,1.20
2019-04-03T13:39:52.946Z,1.60
2019-04-03T13:45:00.059Z,1.55
2019-04-03T13:50:07.389Z,2.90
2019-04-03T13:55:13.251Z,1.90
2019-04-03T14:00:22.717Z,1.52
2019-04-03T14:05:27.822Z,1.45
2019-04-03T14:10:33.176Z,3.35
2019-04-03T14:15:41.012Z,1.40
2019-04-03T14:20:45.803Z,1.60
2019-04-03T14:26:03.032Z,2.33
2019-04-03T14:30:58.564Z,1.82
2019-04-03T14:36:04.198Z,1.85
2019-04-03T14:41:09.619Z,2.27
2019-04-03T14:46:17.309Z,2.77
2019-04-03T14:51:21.870Z,2.02
2019-04-03T14:56:27.200Z,1.90
2019-04-03T15:01:32.526Z,2.25
2019-04-03T15:06:37.982Z,2.30
2019-04-03T15:11:43.640Z,2.83
2019-04-03T15:16:50.755Z,10.57
2019-04-03T15:21:59.211Z,2.45
2019-04-03T15:27:03.195Z,2.58
2019-04-03T15:32:08.616Z,2.30
2019-04-03T15:37:14.836Z,3.00
2019-04-03T15:42:20.995Z,4.15
2019-04-03T15:47:36.102Z,3.27
2019-04-03T15:52:33.915Z,2.90
2019-04-03T15:57:40.698Z,1.98
2019-04-03T16:02:47.205Z,2.37
2019-04-03T16:07:53.722Z,5.17
2019-04-03T16:12:59.853Z,3.50
2019-04-03T16:18:07.722Z,2.40
2019-04-03T16:23:12.979Z,2.33
2019-04-03T16:28:18.378Z,3.10
2019-04-03T16:33:24.875Z,2.60
2019-04-03T16:38:31.351Z,3.30
2019-04-03T16:43:36.640Z,3.53
2019-04-03T16:48:43.310Z,2.87
2019-04-03T16:53:49.450Z,2.62
2019-04-03T16:58:55.003Z,3.25
2019-04-03T17:04:03.230Z,9.95
2019-04-03T17:09:08.779Z,3.45
2019-04-03T17:14:14.278Z,4.35
2019-04-03T17:19:20.013Z,3.80
2019-04-03T17:24:25.890Z,3.50
2019-04-03T17:29:31.151Z,3.10
2019-04-03T17:34:37.814Z,4.05
2019-04-03T17:39:45.763Z,3.60
2019-04-03T17:44:51.074Z,3.87
2019-04-03T17:50:01.914Z,4.33
2019-04-03T17:55:10.005Z,5.12
2019-04-03T18:00:20.875Z,3.10
2019-04-03T18:05:26.317Z,3.40
2019-04-03T18:10:31.553Z,2.92
2019-04-03T18:15:37.185Z,2.33
2019-04-03T18:20:44.459Z,2.00
2019-04-03T18:25:49.571Z,3.30
2019-04-03T18:30:56.192Z,1.95
2019-04-03T18:36:01.816Z,1.80
2019-04-03T18:41:07.213Z,1.80
2019-04-03T18:46:12.768Z,1.87
2019-04-03T18:51:20.286Z,2.63
2019-04-03T18:56:24.920Z,2.00
2019-04-03T19:01:32.261Z,1.70
2019-04-03T19:06:38.148Z,1.45
2019-04-03T19:11:43.454Z,1.85
2019-04-03T19:16:52.708Z,2.60
2019-04-03T19:21:55.732Z,2.20
2019-04-03T19:27:02.408Z,3.67
2019-04-03T19:32:11.771Z,4.37
2019-04-03T19:37:16.852Z,2.30
2019-04-03T19:42:22.124Z,3.37
2019-04-03T19:47:27.457Z,5.92
2019-04-03T19:52:32.791Z,3.70
2019-04-03T19:57:38.327Z,3.00
2019-04-03T20:02:43.965Z,1.70
2019-04-03T20:07:49.757Z,1.70
2019-04-03T20:12:56.046Z,1.80
2019-04-03T20:18:01.518Z,2.93
2019-04-03T20:23:06.933Z,2.50
2019-04-03T20:28:12.784Z,11.43
2019-04-03T20:33:18.199Z,2.27
2019-04-03T20:38:23.464Z,6.10
2019-04-03T20:43:28.741Z,4.37
2019-04-03T20:48:34.012Z,2.85
2019-04-03T20:53:39.564Z,3.05
2019-04-03T20:58:55.208Z,2.47
2019-04-03T21:03:53.658Z,3.40
2019-04-03T21:08:59.590Z,7.80
2019-04-03T21:14:05.830Z,6.97
2019-04-03T21:19:11.404Z,2.60
2019-04-03T21:24:16.994Z,3.65
2019-04-03T21:29:22.582Z,3.58
2019-04-03T21:34:27.878Z,3.05
2019-04-03T21:39:33.948Z,2.70
2019-04-03T21:44:39.959Z,26.52
2019-04-03T21:49:47.428Z,13.48
2019-04-03T21:54:52.451Z,2.87
2019-04-03T21:59:57.696Z,3.22
2019-04-03T22:05:03.625Z,7.10
2019-04-03T22:10:09.762Z,3.35
2019-04-03T22:15:14.988Z,4.43
2019-04-03T22:20:20.404Z,2.98
2019-04-03T22:25:25.991Z,3.37
2019-04-03T22:30:31.568Z,3.92
2019-04-03T22:35:36.823Z,4.00
2019-04-03T22:40:42.456Z,4.58
2019-04-03T22:45:50.443Z,6.08
2019-04-03T22:50:54.870Z,7.27
2019-04-03T22:56:00.666Z,5.37
2019-04-03T23:01:06.096Z,5.12
2019-04-03T23:06:11.585Z,4.03
2019-04-03T23:11:17.024Z,4.30
2019-04-03T23:16:22.636Z,5.03
2019-04-03T23:21:27.979Z,5.03
2019-04-03T23:26:33.611Z,4.80
2019-04-03T23:31:39.205Z,4.92
2019-04-03T23:36:44.932Z,4.50
2019-04-03T23:41:50.624Z,4.65
2019-04-03T23:46:56.094Z,4.53
2019-04-03T23:52:01.422Z,5.12
2019-04-03T23:57:09.550Z,4.97
